Gardiner, MT (59030)

2:10 PM MDT on March 25, 2017 (GMT -0600)
Gardiner, MT | | Change Station

Elev 5325 ft 45.04 °N, 110.71 °W | Updated 32 seconds ago

Overcast
Overcast
47.3 °F
Feels Like 47 °F
N
0.5
Wind Variable Wind from SSW
Gusts 1.5 mph

Today
High -- | Low -- °F
--% Chance of Precip.
Yesterday
High -- | Low -- °F
Precip. -- in
Pressure 29.98 in
Visibility 3.0 miles
Clouds Scattered Clouds 1100 ft
Mostly Cloudy 6000 ft
Windchill 47 °F
Dew Point 32 °F
Humidity 55%
Rainfall 0.00 in
Snow Depth Not available.
7:15 AM 7:42 PM
Waning Crescent, 7% visible
METAR KWYS 251950Z AUTO 20012G21KT 3SM BR SCT011 BKN060 01/00 A2998 RMK AO2
Pressure 29.98 in
Visibility 3.0 miles
Clouds Scattered Clouds 1100 ft
Mostly Cloudy 6000 ft
Windchill 47 °F
Dew Point 32 °F
Humidity 55%
Rainfall 0.00 in
Snow Depth Not available.
7:15 AM 7:42 PM
Waning Crescent, 7% visible
METAR KWYS 251950Z AUTO 20012G21KT 3SM BR SCT011 BKN060 01/00 A2998 RMK AO2

Get Severe Weather Alerts

Thanks for signing up!

Be on the lookout for a verification email in your inbox.

You'll start receiving the daily forecast at 8 AM.

×

10-Day Weather Forecast

Almanac

Astronomy

Mar. 25, 2017 Rise Set
Actual Time
Civil Twilight
Nautical Twilight
Astronomical Twilight
Moon
Length of Visible Light
Length of Day
Tomorrow will be .
, % of the Moon is Illuminated

Today's Extremes

State Highs State Lows

Community

WunderPhotos

Upload Photos

1,962,540 photos uploaded!

WunderBlog® & News

Nearby

Air Quality

  Air Quality AQ Index Pollutant
Not available.

Snow Depth

Station Depth Elevation

Earthquake Activity

City Distance Mag. Time & Date
Minimum magnitude displayed is 2.5.

Earthquake Activity

City Distance Mag. Time & Date
Minimum magnitude displayed is 2.5.

Coastal Water Temperatures

Place Temperature

Stations

Nearby Weather Stations

Station Location Temp. Windchill Dew Point Humidity Wind Precip. Elev Updated Type
                   

Watches & Warnings

There are currently no watches in effect.